PWSweather.com
Personal Weather Stations
Station Observations
OINOFYTA
Oinofyta Greece, OinofytaGR 320 11

Oinofyta GreeceOinofytaGR 320 11

Lat: 38.3080648, Lon: 23.6391172

Elevation: 354

Station Type: ProWeatherStation 1080

http://oinofytaweather.gr/

Latest ConditionsUpdated 4:35:00 AM GMT+02:02 Saturday, Jan 18, 2020
Currently Today's Max Today's Min Today's Average
Temperature 47.3°F8.5°C 48.0°F8.9°C 45.3°F7.4°C 46.9°F8.3°C
Dew Point 35.0°F1.7°C 41.9°F5.5°C 35.0°F1.7°C 39.0°F3.9°C
Winds 4.6 mph N7.4 kmh N 8.2 mph -13.2 kmh - - 4.4 mph 7.1 kmh
Wind Gusts 14.5 mph23.3 kmh 17.4 mph28.0 kmh - -
Humidity 62% 87% 62% 74%
Pressure 30.32 in1026.8 mb 30.36 in1028.1 mb 30.32 in1026.8 mb -
Hour Temp Dew Point Humidity Winds Wind Gusts Pressure Precip Precip Rate Daily Precip Total
04:35 AM 47.3°F8.5°C 35.0°F1.7°C 62% 4.6 mph N7.4 kmh N 14.5 mph23.3 kmh 30.32 in1026.8 mb 0.00 in0.0 mm 0.00 in0.0 mm 0.00 in0.0 mm
04:30 AM 47.3°F8.5°C 35.8°F2.1°C 64% 4.4 mph NNW7.1 kmh NNW 11.4 mph18.3 kmh 30.32 in1026.8 mb 0.00 in0.0 mm 0.00 in0.0 mm 0.00 in0.0 mm
04:25 AM 47.1°F8.4°C 35.6°F2.0°C 64% 4.8 mph NW7.7 kmh NW 11.4 mph18.3 kmh 30.32 in1026.8 mb 0.00 in0.0 mm 0.00 in0.0 mm 0.00 in0.0 mm
04:20 AM 47.1°F8.4°C 36.0°F2.2°C 65% 5.0 mph NNW8.0 kmh NNW 11.4 mph18.3 kmh 30.32 in1026.8 mb 0.00 in0.0 mm 0.00 in0.0 mm 0.00 in0.0 mm
04:15 AM 47.1°F8.4°C 36.0°F2.2°C 65% 6.8 mph NNW10.9 kmh NNW 17.4 mph28.0 kmh 30.32 in1026.8 mb 0.00 in0.0 mm 0.00 in0.0 mm 0.00 in0.0 mm
04:10 AM 47.1°F8.4°C 36.0°F2.2°C 65% 7.2 mph NW11.6 kmh NW 17.4 mph28.0 kmh 30.32 in1026.8 mb 0.00 in0.0 mm 0.00 in0.0 mm 0.00 in0.0 mm
04:05 AM 46.9°F8.3°C 35.8°F2.1°C 65% 6.4 mph NW10.3 kmh NW 17.4 mph28.0 kmh 30.32 in1026.8 mb 0.00 in0.0 mm 0.00 in0.0 mm 0.00 in0.0 mm
04:00 AM 46.9°F8.3°C 36.2°F2.3°C 66% 6.9 mph NNW11.1 kmh NNW 15.9 mph25.6 kmh 30.32 in1026.8 mb 0.00 in0.0 mm 0.00 in0.0 mm 0.00 in0.0 mm
03:55 AM 46.9°F8.3°C 36.2°F2.3°C 66% 7.1 mph NW11.4 kmh NW 15.9 mph25.6 kmh 30.33 in1027.1 mb 0.00 in0.0 mm 0.00 in0.0 mm 0.00 in0.0 mm
03:50 AM 46.9°F8.3°C 36.6°F2.6°C 67% 6.2 mph NW10.0 kmh NW 14.5 mph23.3 kmh 30.33 in1027.1 mb 0.00 in0.0 mm 0.00 in0.0 mm 0.00 in0.0 mm
03:45 AM 46.8°F8.2°C 37.1°F2.8°C 69% 5.2 mph NW8.4 kmh NW 13.6 mph21.9 kmh 30.32 in1026.8 mb 0.00 in0.0 mm 0.00 in0.0 mm 0.00 in0.0 mm
03:40 AM 46.8°F8.2°C 38.2°F3.4°C 72% 5.5 mph NW8.9 kmh NW 14.5 mph23.3 kmh 30.32 in1026.8 mb 0.00 in0.0 mm 0.00 in0.0 mm 0.00 in0.0 mm
03:35 AM 46.6°F8.1°C 38.4°F3.6°C 73% 4.1 mph NW6.6 kmh NW 14.5 mph23.3 kmh 30.33 in1027.1 mb 0.00 in0.0 mm 0.00 in0.0 mm 0.00 in0.0 mm
03:30 AM 46.2°F7.9°C 39.4°F4.1°C 77% 1.9 mph WNW3.1 kmh WNW 6.0 mph9.7 kmh 30.33 in1027.1 mb 0.00 in0.0 mm 0.00 in0.0 mm 0.00 in0.0 mm
03:25 AM 46.2°F7.9°C 39.4°F4.1°C 77% 2.1 mph WNW3.4 kmh WNW 6.9 mph11.1 kmh 30.33 in1027.1 mb 0.00 in0.0 mm 0.00 in0.0 mm 0.00 in0.0 mm
03:20 AM 46.0°F7.8°C 39.6°F4.2°C 78% 2.5 mph WNW4.0 kmh WNW 8.3 mph13.4 kmh 30.33 in1027.1 mb 0.00 in0.0 mm 0.00 in0.0 mm 0.00 in0.0 mm
03:15 AM 45.9°F7.7°C 40.0°F4.4°C 80% 3.0 mph NW4.8 kmh NW 9.8 mph15.8 kmh 30.33 in1027.1 mb 0.00 in0.0 mm 0.00 in0.0 mm 0.00 in0.0 mm
03:10 AM 45.9°F7.7°C 40.4°F4.7°C 81% 3.5 mph NW5.6 kmh NW 9.8 mph15.8 kmh 30.34 in1027.4 mb 0.00 in0.0 mm 0.00 in0.0 mm 0.00 in0.0 mm
03:05 AM 45.7°F7.6°C 40.5°F4.7°C 82% 4.4 mph NW7.1 kmh NW 10.7 mph17.2 kmh 30.34 in1027.4 mb 0.00 in0.0 mm 0.00 in0.0 mm 0.00 in0.0 mm
03:00 AM 45.7°F7.6°C 40.8°F4.9°C 83% 5.5 mph NW8.9 kmh NW 13.0 mph20.9 kmh 30.34 in1027.4 mb 0.00 in0.0 mm 0.00 in0.0 mm 0.00 in0.0 mm
02:55 AM 45.5°F7.5°C 41.0°F5.0°C 84% 5.1 mph NW8.2 kmh NW 13.0 mph20.9 kmh 30.34 in1027.4 mb 0.00 in0.0 mm 0.00 in0.0 mm 0.00 in0.0 mm
02:50 AM 45.3°F7.4°C 41.1°F5.1°C 85% 4.2 mph NW6.8 kmh NW 8.3 mph13.4 kmh 30.34 in1027.4 mb 0.00 in0.0 mm 0.00 in0.0 mm 0.00 in0.0 mm
02:45 AM 45.3°F7.4°C 41.7°F5.4°C 87% 4.0 mph NW6.4 kmh NW 10.7 mph17.2 kmh 30.34 in1027.4 mb 0.00 in0.0 mm 0.00 in0.0 mm 0.00 in0.0 mm
02:40 AM 45.3°F7.4°C 41.7°F5.4°C 87% 4.4 mph NW7.1 kmh NW 10.7 mph17.2 kmh 30.34 in1027.4 mb 0.00 in0.0 mm 0.00 in0.0 mm 0.00 in0.0 mm
02:35 AM 45.3°F7.4°C 41.7°F5.4°C 87% 4.4 mph NW7.1 kmh NW 9.8 mph15.8 kmh 30.34 in1027.4 mb 0.00 in0.0 mm 0.00 in0.0 mm 0.00 in0.0 mm
02:30 AM 45.5°F7.5°C 41.9°F5.5°C 87% 3.9 mph NW6.3 kmh NW 9.8 mph15.8 kmh 30.34 in1027.4 mb 0.00 in0.0 mm 0.00 in0.0 mm 0.00 in0.0 mm
02:25 AM 45.5°F7.5°C 41.9°F5.5°C 87% 5.9 mph NW9.5 kmh NW 14.5 mph23.3 kmh 30.34 in1027.4 mb 0.00 in0.0 mm 0.00 in0.0 mm 0.00 in0.0 mm
02:20 AM 45.9°F7.7°C 41.6°F5.3°C 85% 8.2 mph NW13.2 kmh NW 16.8 mph27.0 kmh 30.34 in1027.4 mb 0.00 in0.0 mm 0.00 in0.0 mm 0.00 in0.0 mm
02:15 AM 46.2°F7.9°C 41.3°F5.2°C 83% 7.8 mph NW12.6 kmh NW 16.8 mph27.0 kmh 30.33 in1027.1 mb 0.00 in0.0 mm 0.00 in0.0 mm 0.00 in0.0 mm
02:10 AM 46.4°F8.0°C 41.2°F5.1°C 82% 7.2 mph NW11.6 kmh NW 16.8 mph27.0 kmh 30.33 in1027.1 mb 0.00 in0.0 mm 0.00 in0.0 mm 0.00 in0.0 mm
02:05 AM 46.8°F8.2°C 41.2°F5.1°C 81% 6.2 mph NW10.0 kmh NW 13.0 mph20.9 kmh 30.33 in1027.1 mb 0.00 in0.0 mm 0.00 in0.0 mm 0.00 in0.0 mm
02:00 AM 46.9°F8.3°C 40.4°F4.7°C 78% 4.5 mph NW7.2 kmh NW 12.1 mph19.5 kmh 30.33 in1027.1 mb 0.00 in0.0 mm 0.00 in0.0 mm 0.00 in0.0 mm
01:55 AM 47.1°F8.4°C 40.3°F4.6°C 77% 4.0 mph NW6.4 kmh NW 11.4 mph18.3 kmh 30.33 in1027.1 mb 0.00 in0.0 mm 0.00 in0.0 mm 0.00 in0.0 mm
01:50 AM 47.1°F8.4°C 40.0°F4.4°C 76% 4.1 mph NW6.6 kmh NW 11.4 mph18.3 kmh 30.33 in1027.1 mb 0.00 in0.0 mm 0.00 in0.0 mm 0.00 in0.0 mm
01:45 AM 47.3°F8.5°C 39.8°F4.3°C 75% 3.4 mph NW5.5 kmh NW 9.8 mph15.8 kmh 30.33 in1027.1 mb 0.00 in0.0 mm 0.00 in0.0 mm 0.00 in0.0 mm
01:40 AM 47.5°F8.6°C 39.6°F4.2°C 74% 2.6 mph NW4.2 kmh NW 6.0 mph9.7 kmh 30.33 in1027.1 mb 0.00 in0.0 mm 0.00 in0.0 mm 0.00 in0.0 mm
01:35 AM 47.7°F8.7°C 39.1°F3.9°C 72% 2.6 mph W4.2 kmh W 6.9 mph11.1 kmh 30.34 in1027.4 mb 0.00 in0.0 mm 0.00 in0.0 mm 0.00 in0.0 mm
01:30 AM 48.0°F8.9°C 38.0°F3.3°C 68% 3.4 mph WNW5.5 kmh WNW 10.7 mph17.2 kmh 30.34 in1027.4 mb 0.00 in0.0 mm 0.00 in0.0 mm 0.00 in0.0 mm
01:25 AM 48.0°F8.9°C 38.0°F3.3°C 68% 3.8 mph NW6.1 kmh NW 10.7 mph17.2 kmh 30.34 in1027.4 mb 0.00 in0.0 mm 0.00 in0.0 mm 0.00 in0.0 mm
01:20 AM 48.0°F8.9°C 38.0°F3.3°C 68% 3.5 mph WNW5.6 kmh WNW 9.8 mph15.8 kmh 30.33 in1027.1 mb 0.00 in0.0 mm 0.00 in0.0 mm 0.00 in0.0 mm
01:15 AM 48.0°F8.9°C 38.0°F3.3°C 68% 3.8 mph NW6.1 kmh NW 9.8 mph15.8 kmh 30.34 in1027.4 mb 0.00 in0.0 mm 0.00 in0.0 mm 0.00 in0.0 mm
01:10 AM 48.0°F8.9°C 38.0°F3.3°C 68% 3.3 mph NW5.3 kmh NW 9.2 mph14.8 kmh 30.34 in1027.4 mb 0.00 in0.0 mm 0.00 in0.0 mm 0.00 in0.0 mm
01:05 AM 48.0°F8.9°C 38.0°F3.3°C 68% 3.6 mph NW5.8 kmh NW 8.3 mph13.4 kmh 30.34 in1027.4 mb 0.00 in0.0 mm 0.00 in0.0 mm 0.00 in0.0 mm
01:00 AM 48.0°F8.9°C 38.0°F3.3°C 68% 4.8 mph NW7.7 kmh NW 9.2 mph14.8 kmh 30.34 in1027.4 mb 0.00 in0.0 mm 0.00 in0.0 mm 0.00 in0.0 mm
12:55 AM 48.0°F8.9°C 38.3°F3.5°C 69% 4.3 mph NW6.9 kmh NW 9.2 mph14.8 kmh 30.34 in1027.4 mb 0.00 in0.0 mm 0.00 in0.0 mm 0.00 in0.0 mm
12:50 AM 48.0°F8.9°C 38.7°F3.7°C 70% 4.1 mph NW6.6 kmh NW 10.7 mph17.2 kmh 30.35 in1027.8 mb 0.00 in0.0 mm 0.00 in0.0 mm 0.00 in0.0 mm
12:45 AM 48.0°F8.9°C 38.7°F3.7°C 70% 4.4 mph NNW7.1 kmh NNW 10.7 mph17.2 kmh 30.35 in1027.8 mb 0.00 in0.0 mm 0.00 in0.0 mm 0.00 in0.0 mm
12:40 AM 47.8°F8.8°C 38.9°F3.8°C 71% 4.3 mph NNW6.9 kmh NNW 9.8 mph15.8 kmh 30.35 in1027.8 mb 0.00 in0.0 mm 0.00 in0.0 mm 0.00 in0.0 mm
12:35 AM 47.8°F8.8°C 39.3°F4.1°C 72% 4.7 mph NW7.6 kmh NW 11.4 mph18.3 kmh 30.34 in1027.4 mb 0.00 in0.0 mm 0.00 in0.0 mm 0.00 in0.0 mm
12:30 AM 47.7°F8.7°C 39.1°F3.9°C 72% 4.3 mph NW6.9 kmh NW 11.4 mph18.3 kmh 30.35 in1027.8 mb 0.00 in0.0 mm 0.00 in0.0 mm 0.00 in0.0 mm
12:25 AM 47.5°F8.6°C 39.3°F4.1°C 73% 3.2 mph NW5.1 kmh NW 10.7 mph17.2 kmh 30.35 in1027.8 mb 0.00 in0.0 mm 0.00 in0.0 mm 0.00 in0.0 mm
12:20 AM 47.5°F8.6°C 39.6°F4.2°C 74% 2.6 mph NW4.2 kmh NW 8.3 mph13.4 kmh 30.35 in1027.8 mb 0.00 in0.0 mm 0.00 in0.0 mm 0.00 in0.0 mm
12:15 AM 47.5°F8.6°C 40.0°F4.4°C 75% 2.2 mph NW3.5 kmh NW 8.3 mph13.4 kmh 30.35 in1027.8 mb 0.00 in0.0 mm 0.00 in0.0 mm 0.00 in0.0 mm
12:10 AM 47.3°F8.5°C 39.8°F4.3°C 75% 2.0 mph WNW3.2 kmh WNW 7.6 mph12.2 kmh 30.35 in1027.8 mb 0.00 in0.0 mm 0.00 in0.0 mm 0.00 in0.0 mm
12:05 AM 47.5°F8.6°C 40.0°F4.4°C 75% 2.1 mph WNW3.4 kmh WNW 7.6 mph12.2 kmh 30.35 in1027.8 mb 0.00 in0.0 mm 0.00 in0.0 mm 0.00 in0.0 mm
12:00 AM 47.1°F8.4°C 40.0°F4.4°C 76% 1.7 mph NW2.7 kmh NW 6.0 mph9.7 kmh 30.36 in1028.1 mb 0.00 in0.0 mm 0.00 in0.0 mm 0.00 in0.0 mm